Sarah Ann — WDF3387 — position and weather

sailwx.info

Track history (hours):
 
Tides and Currents Weather Stations Pressure Air Temp Water Temp Dewpoint Dewpoint Depression Visibility Wind Speed Wind Dir Waves Ship Positions

Sarah Ann

Owner: Donjon Marine Co., Inc., Hillside, NJ. More information available from US FCC via Universal Licensing System and Coast Guard Vessel Documentation Center.

Last reported at 2018-Jun-24 01:23 UTC. Time now 2018-Jun-24 01:38 UTC.
Position N 40°42' W 074°09'.

Length 2 m; draft 3 m.

Type: Tug. MMSI: 366902120.

Date/timePositionNaut miles runAvg speedWind from/ knotsBaromVisibWave heightAir tempDewpointWater temp
2018-Jun-24 01:23N 40°42' W 074°09'0 0.0
2018-Jun-24 01:00N 40°42' W 074°09'0 0.0
2018-Jun-24 00:15N 40°42' W 074°09'0 0.0
2018-Jun-23 23:54N 40°42' W 074°09'0 0.0
2018-Jun-23 23:15N 40°42' W 074°09'0 0.0
2018-Jun-23 22:49N 40°42' W 074°09'0 0.0
2018-Jun-23 22:30N 40°42' W 074°09'0 0.0
2018-Jun-23 21:59N 40°42' W 074°09'0 0.0
2018-Jun-23 21:30N 40°42' W 074°09'0 0.0
2018-Jun-23 20:59N 40°42' W 074°09'0 0.0
2018-Jun-23 20:12N 40°42' W 074°09'0 0.0
2018-Jun-23 19:36N 40°42' W 074°09'0 0.0
2018-Jun-23 19:20N 40°42' W 074°09'0 0.0
2018-Jun-23 18:53N 40°42' W 074°09'0 0.0
2018-Jun-23 18:23N 40°42' W 074°09'0 0.0
2018-Jun-23 17:59N 40°42' W 074°09'2 4.4
2018-Jun-23 17:30N 40°40' W 074°08'3 5.3
2018-Jun-23 17:00N 40°39' W 074°05'2 4.1
2018-Jun-23 16:29N 40°41' W 074°05'0 0.1
2018-Jun-23 16:00N 40°41' W 074°05'0 0.0
2018-Jun-23 15:30N 40°41' W 074°05'0 0.0
2018-Jun-23 15:00N 40°41' W 074°05'0 0.0
2018-Jun-23 14:30N 40°41' W 074°05'0 0.0
2018-Jun-23 14:00N 40°41' W 074°05'0 0.1
2018-Jun-23 13:30N 40°41' W 074°05'0 0.0
2018-Jun-23 13:00N 40°41' W 074°05'0 0.0
2018-Jun-23 12:30N 40°41' W 074°05'0 0.0
2018-Jun-23 12:00N 40°41' W 074°05'0 0.0
2018-Jun-23 11:30N 40°41' W 074°05'1 3.0
2018-Jun-23 11:00N 40°41' W 074°03'3 6.6
2018-Jun-23 10:30N 40°43' W 073°59'2 4.7
2018-Jun-23 09:59N 40°44' W 073°57'2 3.1
2018-Jun-23 09:29N 40°43' W 073°56'0 0.1
2018-Jun-23 08:56N 40°43' W 073°56'0 1.1
2018-Jun-23 08:29N 40°44' W 073°56'2 4.2
2018-Jun-23 08:00N 40°43' W 073°58'4 8.3
2018-Jun-23 07:30N 40°41' W 074°03'2 3.2
2018-Jun-23 07:00N 40°41' W 074°05'0 0.0
2018-Jun-23 06:29N 40°41' W 074°05'2 3.4
2018-Jun-23 06:00N 40°40' W 074°04'3 6.9
2018-Jun-23 05:30N 40°39' W 074°09'3 5.4
2018-Jun-23 04:58N 40°41' W 074°08'0 0.0
2018-Jun-23 00:42N 40°41' W 074°08'0 0.0
2018-Jun-22 20:19N 40°41' W 074°08'0 0.0
2018-Jun-22 19:23N 40°41' W 074°08'0 0.0
2018-Jun-22 19:00N 40°41' W 074°08'0 0.0
2018-Jun-22 18:30N 40°41' W 074°08'0 0.0
2018-Jun-22 17:59N 40°41' W 074°08'0 0.0
2018-Jun-22 17:15N 40°41' W 074°08'0 0.0
2018-Jun-22 16:59N 40°41' W 074°08'0 0.0
2018-Jun-22 16:04N 40°41' W 074°08'0 0.0
2018-Jun-22 15:59N 40°41' W 074°08'0 0.0
2018-Jun-22 15:24N 40°41' W 074°08'0 0.0
2018-Jun-22 15:00N 40°41' W 074°08'0 0.0
2018-Jun-22 13:42N 40°41' W 074°08'0 0.0
2018-Jun-22 13:26N 40°41' W 074°08'1 1.3
2018-Jun-22 12:46N 40°42' W 074°09'0 0.0
2018-Jun-22 12:29N 40°42' W 074°09'0 0.0
2018-Jun-22 12:00N 40°42' W 074°09'0 0.0
2018-Jun-22 11:30N 40°42' W 074°09'0 0.1
2018-Jun-22 11:00N 40°42' W 074°09'0 0.0
2018-Jun-22 10:02N 40°42' W 074°09'0 0.0
2018-Jun-22 09:57N 40°42' W 074°09'0 0.0
2018-Jun-22 07:09N 40°42' W 074°09'0 0.0
2018-Jun-22 06:01N 40°42' W 074°09'0 0.1
2018-Jun-22 05:59N 40°42' W 074°09'0 0.0
2018-Jun-22 05:16N 40°42' W 074°09'0 0.0
2018-Jun-21 23:55N 40°42' W 074°09'0 0.0
2018-Jun-21 23:18N 40°42' W 074°09'0 0.0
2018-Jun-21 22:53N 40°42' W 074°09'0 0.0
2018-Jun-21 22:23N 40°42' W 074°09'0 0.0
2018-Jun-21 22:00N 40°42' W 074°09'0 0.0
2018-Jun-21 21:03N 40°42' W 074°09'0 0.1
2018-Jun-21 21:00N 40°42' W 074°09'1 2.4
2018-Jun-21 20:29N 40°41' W 074°09'0 0.0
2018-Jun-21 20:00N 40°41' W 074°09'1 0.1
2018-Jun-21 12:21N 40°42' W 074°09'1 2.1
2018-Jun-21 11:57N 40°41' W 074°09'1 1.4
2018-Jun-21 11:30N 40°41' W 074°09'0 0.5
2018-Jun-21 11:00N 40°41' W 074°08'0 0.0
2018-Jun-21 10:30N 40°41' W 074°08'0 0.0
2018-Jun-21 10:00N 40°41' W 074°08'1 3.0
2018-Jun-21 09:30N 40°40' W 074°09'2 0.8
2018-Jun-21 06:51N 40°39' W 074°11'0 0.0
2018-Jun-21 05:48N 40°39' W 074°11'2 5.3
2018-Jun-21 05:28N 40°39' W 074°09'4 8.6
2018-Jun-21 05:00N 40°40' W 074°04'1 2.7
2018-Jun-21 04:30N 40°41' W 074°05'0 0.0
2018-Jun-21 04:00N 40°41' W 074°05'0 0.0
2018-Jun-21 03:28N 40°41' W 074°05'0 0.0
2018-Jun-21 02:58N 40°41' W 074°05'0 0.0
2018-Jun-21 02:30N 40°41' W 074°05'0 0.0
2018-Jun-21 02:00N 40°41' W 074°05'1 2.6
2018-Jun-21 01:30N 40°41' W 074°03'4 7.9
2018-Jun-21 01:00N 40°43' W 073°59'3 0.7
2018-Jun-20 19:58N 40°46' W 073°57'4 8.2
2018-Jun-20 19:30N 40°42' W 073°59'4 7.9
2018-Jun-20 19:00N 40°41' W 074°04'0 0.8
2018-Jun-20 18:30N 40°41' W 074°04'4 6.3
2018-Jun-20 17:56N 40°39' W 074°08'2 5.4
2018-Jun-20 17:30N 40°41' W 074°09'0 0.1
2018-Jun-20 17:00N 40°41' W 074°08'2 4.0
2018-Jun-20 16:28N 40°39' W 074°09'4 7.6
2018-Jun-20 16:00N 40°39' W 074°04'2 3.1
2018-Jun-20 15:30N 40°41' W 074°04'0 0.6
2018-Jun-20 15:00N 40°41' W 074°05'0 0.0
2018-Jun-20 14:30N 40°41' W 074°05'0 0.0
2018-Jun-20 14:00N 40°41' W 074°05'0 0.0
2018-Jun-20 13:30N 40°41' W 074°05'0 0.0
2018-Jun-20 13:00N 40°41' W 074°05'0 0.0
2018-Jun-20 12:30N 40°41' W 074°05'0 0.0
2018-Jun-20 12:00N 40°41' W 074°05'0 0.0
2018-Jun-20 11:30N 40°41' W 074°05'0 0.0
2018-Jun-20 11:00N 40°41' W 074°05'0 0.0
2018-Jun-20 10:30N 40°41' W 074°05'0 0.0
2018-Jun-20 10:00N 40°41' W 074°05'0 0.0
2018-Jun-20 09:30N 40°41' W 074°05'0 0.0
2018-Jun-20 09:00N 40°41' W 074°05'1 2.0
2018-Jun-20 08:30N 40°41' W 074°04'3 6.6
2018-Jun-20 08:00N 40°42' W 073°60'3 5.7
2018-Jun-20 07:28N 40°44' W 073°57'2 3.4
2018-Jun-20 07:00N 40°43' W 073°56'0 0.2
2018-Jun-20 06:28N 40°43' W 073°55'2 3.6
2018-Jun-20 05:54N 40°44' W 073°58'3 7.3
2018-Jun-20 05:30N 40°42' W 074°00'3 6.6
2018-Jun-20 05:00N 40°41' W 074°04'0 0.5
2018-Jun-20 04:30N 40°41' W 074°05'0 0.0
2018-Jun-20 04:00N 40°41' W 074°05'0 0.0
2018-Jun-20 03:30N 40°41' W 074°05'0 0.0
2018-Jun-20 03:00N 40°41' W 074°05'0 0.0
2018-Jun-20 02:30N 40°41' W 074°05'0 0.0
2018-Jun-20 02:00N 40°41' W 074°05'0 0.0
2018-Jun-20 01:30N 40°41' W 074°05'0 0.0
2018-Jun-20 01:00N 40°41' W 074°05'0 0.0
2018-Jun-20 00:30N 40°41' W 074°05'2 3.7
2018-Jun-20 00:00N 40°39' W 074°04'3 6.0
2018-Jun-19 23:27N 40°39' W 074°09'3 2.0
2018-Jun-19 22:10N 40°42' W 074°09'0 0.0
2018-Jun-19 17:53N 40°42' W 074°09'0 0.0
2018-Jun-19 17:26N 40°42' W 074°09'0 0.1
2018-Jun-19 17:00N 40°42' W 074°09'0 0.3
2018-Jun-19 16:28N 40°42' W 074°09'0 0.1
2018-Jun-19 15:58N 40°42' W 074°09'0 0.0
2018-Jun-19 15:24N 40°42' W 074°09'0 0.0
2018-Jun-19 14:54N 40°42' W 074°09'0 0.0
2018-Jun-19 14:25N 40°42' W 074°09'0 0.0
2018-Jun-19 13:55N 40°42' W 074°09'0 0.0
2018-Jun-19 09:59N 40°42' W 074°09'1 2.1
2018-Jun-19 09:30N 40°41' W 074°08'3 5.3
2018-Jun-19 09:00N 40°39' W 074°08'4 7.1
2018-Jun-19 08:30N 40°40' W 074°04'1 1.1
2018-Jun-19 08:00N 40°40' W 074°03'4 7.5
2018-Jun-19 07:30N 40°42' W 073°59'3 5.2
2018-Jun-19 07:00N 40°44' W 073°56'1 1.8
2018-Jun-19 06:23N 40°43' W 073°56'1 3.7
2018-Jun-19 05:59N 40°44' W 073°57'3 6.1
2018-Jun-19 05:30N 40°42' W 073°60'3 6.8
2018-Jun-19 05:00N 40°40' W 074°03'1 2.4
2018-Jun-19 04:30N 40°41' W 074°05'0 0.0
2018-Jun-19 04:00N 40°41' W 074°05'0 0.0
2018-Jun-19 03:30N 40°41' W 074°05'0 0.0
2018-Jun-19 03:00N 40°41' W 074°05'0 0.0
2018-Jun-19 02:29N 40°41' W 074°05'0 0.0
2018-Jun-19 02:00N 40°41' W 074°05'0 0.0
2018-Jun-19 01:30N 40°41' W 074°05'0 0.0
2018-Jun-19 01:00N 40°41' W 074°05'0 0.0
2018-Jun-19 00:30N 40°41' W 074°05'0 0.0
2018-Jun-19 00:00N 40°41' W 074°05'0 0.0
2018-Jun-18 23:28N 40°41' W 074°05'0 0.0
2018-Jun-18 23:00N 40°41' W 074°05'0 0.0
2018-Jun-18 22:30N 40°41' W 074°05'0 0.1
2018-Jun-18 22:00N 40°41' W 074°04'3 5.8
2018-Jun-18 21:25N 40°39' W 074°08'3 3.5
2018-Jun-18 20:32N 40°42' W 074°08'0 4.4
2018-Jun-18 20:26N 40°41' W 074°08'0 1.0
2018-Jun-18 20:00N 40°41' W 074°09'0 0.1
2018-Jun-18 19:30N 40°41' W 074°08'0 0.2
2018-Jun-18 19:00N 40°41' W 074°09'0 0.1
2018-Jun-18 18:30N 40°41' W 074°08'1 2.0
2018-Jun-18 17:58N 40°42' W 074°09'0 0.1
2018-Jun-18 17:29N 40°42' W 074°09'0 0.0
2018-Jun-18 08:28N 40°42' W 074°09'0 0.0
2018-Jun-18 08:00N 40°42' W 074°09'0 0.0
2018-Jun-18 07:30N 40°42' W 074°09'0 0.0
2018-Jun-18 03:02N 40°42' W 074°09'0 0.0
2018-Jun-17 11:11N 40°42' W 074°09'0 0.1
2018-Jun-17 10:45N 40°42' W 074°09'0 0.0
2018-Jun-17 10:30N 40°42' W 074°09'0 0.0
2018-Jun-17 10:00N 40°42' W 074°09'0 0.0
2018-Jun-17 09:28N 40°42' W 074°09'0 0.0
2018-Jun-17 08:58N 40°42' W 074°09'0 0.0
2018-Jun-17 08:30N 40°42' W 074°09'0 0.0
2018-Jun-17 08:00N 40°42' W 074°09'0 0.0
2018-Jun-17 07:30N 40°42' W 074°09'0 0.0
2018-Jun-17 07:00N 40°42' W 074°09'0 0.0
2018-Jun-17 06:29N 40°42' W 074°09'0 0.0
2018-Jun-17 06:00N 40°42' W 074°09'0 0.0
2018-Jun-17 05:30N 40°42' W 074°09'0 0.0
2018-Jun-17 05:00N 40°42' W 074°09'0 0.0
2018-Jun-17 04:30N 40°42' W 074°09'0 0.0
2018-Jun-17 04:00N 40°42' W 074°09'0 0.0
2018-Jun-17 03:30N 40°42' W 074°09'0 0.0
2018-Jun-17 03:00N 40°42' W 074°09'0 0.0
2018-Jun-17 02:29N 40°42' W 074°09'0 0.0
2018-Jun-17 02:00N 40°42' W 074°09'0 0.0
2018-Jun-17 01:30N 40°42' W 074°09'0 0.0
2018-Jun-17 00:16N 40°42' W 074°09'2 6.1
2018-Jun-17 00:00N 40°41' W 074°08'2 3.8
2018-Jun-16 23:30N 40°39' W 074°08'4 7.7
2018-Jun-16 23:00N 40°41' W 074°04'1 1.0
2018-Jun-16 22:30N 40°41' W 074°05'0 0.0
2018-Jun-16 22:00N 40°41' W 074°05'2 3.9
2018-Jun-16 21:30N 40°41' W 074°02'4 7.9
2018-Jun-16 21:00N 40°44' W 073°58'2 0.3
2018-Jun-16 15:57N 40°46' W 073°57'3 7.3
2018-Jun-16 15:30N 40°42' W 073°59'4 7.1
2018-Jun-16 15:00N 40°40' W 074°03'2 3.5
2018-Jun-16 14:30N 40°41' W 074°05'0 0.0
2018-Jun-16 14:00N 40°41' W 074°05'0 0.0
2018-Jun-16 13:30N 40°41' W 074°05'0 0.0
2018-Jun-16 13:00N 40°41' W 074°05'0 0.0
2018-Jun-16 12:30N 40°41' W 074°05'0 0.0
2018-Jun-16 12:00N 40°41' W 074°05'0 0.0
2018-Jun-16 11:30N 40°41' W 074°05'0 0.0
2018-Jun-16 11:00N 40°41' W 074°05'0 0.0
2018-Jun-16 10:30N 40°41' W 074°05'0 0.0
2018-Jun-16 10:00N 40°41' W 074°05'0 0.0
2018-Jun-16 09:30N 40°41' W 074°05'0 0.0
2018-Jun-16 09:00N 40°41' W 074°05'0 0.0
2018-Jun-16 08:30N 40°41' W 074°05'0 0.0
2018-Jun-16 08:00N 40°41' W 074°05'0 0.0
2018-Jun-16 07:30N 40°41' W 074°05'0 0.0
2018-Jun-16 07:00N 40°41' W 074°05'0 0.0
2018-Jun-16 06:30N 40°41' W 074°05'0 0.0
2018-Jun-16 06:00N 40°41' W 074°05'0 0.2
2018-Jun-16 05:30N 40°41' W 074°04'2 4.2
2018-Jun-16 05:00N 40°42' W 074°02'4 7.7
2018-Jun-16 04:30N 40°44' W 073°58'2 3.9
2018-Jun-16 03:59N 40°43' W 073°56'1 1.7
2018-Jun-16 03:21N 40°44' W 073°56'1 2.2
2018-Jun-16 02:57N 40°44' W 073°58'2 5.2
2018-Jun-16 02:30N 40°42' W 073°59'3 7.0
2018-Jun-16 02:00N 40°40' W 074°03'1 2.9
2018-Jun-16 01:30N 40°41' W 074°04'0 0.0
2018-Jun-16 00:59N 40°41' W 074°04'0 0.0
2018-Jun-16 00:30N 40°41' W 074°04'0 0.2
2018-Jun-16 00:00N 40°41' W 074°05'0 0.3
2018-Jun-15 23:30N 40°41' W 074°05'0 0.0
2018-Jun-15 23:00N 40°41' W 074°05'0 0.0
2018-Jun-15 22:30N 40°41' W 074°05'0 0.0
2018-Jun-15 22:00N 40°41' W 074°05'0 0.0
2018-Jun-15 21:30N 40°41' W 074°05'0 0.0
2018-Jun-15 21:00N 40°41' W 074°05'0 0.0
2018-Jun-15 20:30N 40°41' W 074°05'0 0.0
2018-Jun-15 20:00N 40°41' W 074°05'0 0.2
2018-Jun-15 19:30N 40°41' W 074°05'0 0.2
2018-Jun-15 19:00N 40°41' W 074°05'0 0.3
2018-Jun-15 18:30N 40°41' W 074°05'0 0.0
2018-Jun-15 17:59N 40°41' W 074°05'0 0.0
2018-Jun-15 17:29N 40°41' W 074°05'0 0.0
2018-Jun-15 17:00N 40°41' W 074°05'0 0.0
2018-Jun-15 16:30N 40°41' W 074°05'0 0.0
2018-Jun-15 16:00N 40°41' W 074°05'0 0.0
2018-Jun-15 15:30N 40°41' W 074°05'0 0.0
2018-Jun-15 15:00N 40°41' W 074°05'0 0.0
2018-Jun-15 14:30N 40°41' W 074°05'0 0.0
2018-Jun-15 14:00N 40°41' W 074°05'0 0.0
2018-Jun-15 13:30N 40°41' W 074°05'0 0.0
2018-Jun-15 12:58N 40°41' W 074°05'0 0.0
2018-Jun-15 12:29N 40°41' W 074°05'0 0.0
2018-Jun-15 11:59N 40°41' W 074°05'0 0.0
2018-Jun-15 11:30N 40°41' W 074°05'0 0.0
2018-Jun-15 11:00N 40°41' W 074°05'0 0.0
2018-Jun-15 10:30N 40°41' W 074°05'0 0.2
2018-Jun-15 10:00N 40°41' W 074°05'0 0.0
2018-Jun-15 09:30N 40°41' W 074°05'0 0.0
2018-Jun-15 09:00N 40°41' W 074°05'0 0.0
2018-Jun-15 08:30N 40°41' W 074°05'0 0.0
2018-Jun-15 08:00N 40°41' W 074°05'0 0.0
2018-Jun-15 07:30N 40°41' W 074°05'0 0.0
2018-Jun-15 07:00N 40°41' W 074°05'0 0.0
2018-Jun-15 06:25N 40°41' W 074°05'0 0.0
2018-Jun-15 05:58N 40°41' W 074°05'0 0.0
2018-Jun-15 05:30N 40°41' W 074°05'0 0.0
2018-Jun-15 05:00N 40°41' W 074°05'0 0.0
2018-Jun-15 04:30N 40°41' W 074°05'0 0.0
2018-Jun-15 04:00N 40°41' W 074°05'0 0.0
2018-Jun-15 03:30N 40°41' W 074°05'0 0.0
2018-Jun-15 03:00N 40°41' W 074°05'0 0.0
2018-Jun-15 02:30N 40°41' W 074°05'0 0.0
2018-Jun-15 01:59N 40°41' W 074°05'0 0.0
2018-Jun-15 01:29N 40°41' W 074°05'0 0.0
2018-Jun-15 01:00N 40°41' W 074°05'0 0.0
2018-Jun-15 00:30N 40°41' W 074°05'0 0.0
2018-Jun-15 00:00N 40°41' W 074°05'0 0.0
2018-Jun-14 23:30N 40°41' W 074°05'0 0.0
2018-Jun-14 22:58N 40°41' W 074°05'0 0.0
2018-Jun-14 22:27N 40°41' W 074°05'0 0.0
2018-Jun-14 21:59N 40°41' W 074°05'0 0.0
2018-Jun-14 21:29N 40°41' W 074°05'0 0.0
2018-Jun-14 20:58N 40°41' W 074°05'0 0.0
2018-Jun-14 20:27N 40°41' W 074°05'0 0.8
2018-Jun-14 20:00N 40°41' W 074°04'3 5.5
2018-Jun-14 19:30N 40°42' W 074°01'4 7.7
2018-Jun-14 19:00N 40°45' W 073°58'3 0.5
2018-Jun-14 13:31N 40°47' W 073°55'2 9.0
2018-Jun-14 13:17N 40°46' W 073°57'2 8.0
2018-Jun-14 13:00N 40°43' W 073°58'4 8.4
2018-Jun-14 12:30N 40°41' W 074°02'2 4.1
2018-Jun-14 12:00N 40°41' W 074°05'0 0.3
2018-Jun-14 11:30N 40°41' W 074°05'0 0.0
2018-Jun-14 11:00N 40°41' W 074°05'0 0.0
2018-Jun-14 10:30N 40°41' W 074°05'0 0.2
2018-Jun-14 10:00N 40°41' W 074°05'0 0.0
2018-Jun-14 09:30N 40°41' W 074°05'0 0.0
2018-Jun-14 08:58N 40°41' W 074°05'0 0.0
2018-Jun-14 08:29N 40°41' W 074°05'0 0.0
2018-Jun-14 08:00N 40°41' W 074°05'0 0.0
2018-Jun-14 07:30N 40°41' W 074°05'0 0.0
2018-Jun-14 06:59N 40°41' W 074°05'0 0.0
2018-Jun-14 06:30N 40°41' W 074°05'0 0.0
2018-Jun-14 05:59N 40°41' W 074°05'0 0.0
2018-Jun-14 05:30N 40°41' W 074°05'0 0.0
2018-Jun-14 05:00N 40°41' W 074°05'0 0.0
2018-Jun-14 04:30N 40°41' W 074°05'0 0.0
2018-Jun-14 04:00N 40°41' W 074°05'0 0.0
2018-Jun-14 03:30N 40°41' W 074°05'0 0.0
2018-Jun-14 02:59N 40°41' W 074°05'0 0.0
2018-Jun-14 02:30N 40°41' W 074°05'1 2.8
2018-Jun-14 02:00N 40°40' W 074°04'4 7.3
2018-Jun-14 01:29N 40°39' W 074°09'  
Track history (hours):
 
Tides and Currents Weather Stations Pressure Air Temp Water Temp Dewpoint Dewpoint Depression Visibility Wind Speed Wind Dir Waves Ship Positions

Sarah Ann

Owner: Donjon Marine Co., Inc., Hillside, NJ. More information available from US FCC via Universal Licensing System and Coast Guard Vessel Documentation Center.

Last reported at 2018-Jun-24 01:23 UTC. Time now 2018-Jun-24 01:38 UTC.
Position N 40°42' W 074°09'.

Length 2 m; draft 3 m.

Type: Tug. MMSI: 366902120.

Date/timePositionNaut miles runAvg speedWind from/ knotsBaromVisibWave heightAir tempDewpointWater temp
2018-Jun-24 01:23N 40°42' W 074°09'0 0.0
2018-Jun-24 01:00N 40°42' W 074°09'0 0.0
2018-Jun-24 00:15N 40°42' W 074°09'0 0.0
2018-Jun-23 23:54N 40°42' W 074°09'0 0.0
2018-Jun-23 23:15N 40°42' W 074°09'0 0.0
2018-Jun-23 22:49N 40°42' W 074°09'0 0.0
2018-Jun-23 22:30N 40°42' W 074°09'0 0.0
2018-Jun-23 21:59N 40°42' W 074°09'0 0.0
2018-Jun-23 21:30N 40°42' W 074°09'0 0.0
2018-Jun-23 20:59N 40°42' W 074°09'0 0.0
2018-Jun-23 20:12N 40°42' W 074°09'0 0.0
2018-Jun-23 19:36N 40°42' W 074°09'0 0.0
2018-Jun-23 19:20N 40°42' W 074°09'0 0.0
2018-Jun-23 18:53N 40°42' W 074°09'0 0.0
2018-Jun-23 18:23N 40°42' W 074°09'0 0.0
2018-Jun-23 17:59N 40°42' W 074°09'2 4.4
2018-Jun-23 17:30N 40°40' W 074°08'3 5.3
2018-Jun-23 17:00N 40°39' W 074°05'2 4.1
2018-Jun-23 16:29N 40°41' W 074°05'0 0.1
2018-Jun-23 16:00N 40°41' W 074°05'0 0.0
2018-Jun-23 15:30N 40°41' W 074°05'0 0.0
2018-Jun-23 15:00N 40°41' W 074°05'0 0.0
2018-Jun-23 14:30N 40°41' W 074°05'0 0.0
2018-Jun-23 14:00N 40°41' W 074°05'0 0.1
2018-Jun-23 13:30N 40°41' W 074°05'0 0.0
2018-Jun-23 13:00N 40°41' W 074°05'0 0.0
2018-Jun-23 12:30N 40°41' W 074°05'0 0.0
2018-Jun-23 12:00N 40°41' W 074°05'0 0.0
2018-Jun-23 11:30N 40°41' W 074°05'1 3.0
2018-Jun-23 11:00N 40°41' W 074°03'3 6.6
2018-Jun-23 10:30N 40°43' W 073°59'2 4.7
2018-Jun-23 09:59N 40°44' W 073°57'2 3.1
2018-Jun-23 09:29N 40°43' W 073°56'0 0.1
2018-Jun-23 08:56N 40°43' W 073°56'0 1.1
2018-Jun-23 08:29N 40°44' W 073°56'2 4.2
2018-Jun-23 08:00N 40°43' W 073°58'4 8.3
2018-Jun-23 07:30N 40°41' W 074°03'2 3.2
2018-Jun-23 07:00N 40°41' W 074°05'0 0.0
2018-Jun-23 06:29N 40°41' W 074°05'2 3.4
2018-Jun-23 06:00N 40°40' W 074°04'3 6.9
2018-Jun-23 05:30N 40°39' W 074°09'3 5.4
2018-Jun-23 04:58N 40°41' W 074°08'0 0.0
2018-Jun-23 00:42N 40°41' W 074°08'0 0.0
2018-Jun-22 20:19N 40°41' W 074°08'0 0.0
2018-Jun-22 19:23N 40°41' W 074°08'0 0.0
2018-Jun-22 19:00N 40°41' W 074°08'0 0.0
2018-Jun-22 18:30N 40°41' W 074°08'0 0.0
2018-Jun-22 17:59N 40°41' W 074°08'0 0.0
2018-Jun-22 17:15N 40°41' W 074°08'0 0.0
2018-Jun-22 16:59N 40°41' W 074°08'0 0.0
2018-Jun-22 16:04N 40°41' W 074°08'0 0.0
2018-Jun-22 15:59N 40°41' W 074°08'0 0.0
2018-Jun-22 15:24N 40°41' W 074°08'0 0.0
2018-Jun-22 15:00N 40°41' W 074°08'0 0.0
2018-Jun-22 13:42N 40°41' W 074°08'0 0.0
2018-Jun-22 13:26N 40°41' W 074°08'1 1.3
2018-Jun-22 12:46N 40°42' W 074°09'0 0.0
2018-Jun-22 12:29N 40°42' W 074°09'0 0.0
2018-Jun-22 12:00N 40°42' W 074°09'0 0.0
2018-Jun-22 11:30N 40°42' W 074°09'0 0.1
2018-Jun-22 11:00N 40°42' W 074°09'0 0.0
2018-Jun-22 10:02N 40°42' W 074°09'0 0.0
2018-Jun-22 09:57N 40°42' W 074°09'0 0.0
2018-Jun-22 07:09N 40°42' W 074°09'0 0.0
2018-Jun-22 06:01N 40°42' W 074°09'0 0.1
2018-Jun-22 05:59N 40°42' W 074°09'0 0.0
2018-Jun-22 05:16N 40°42' W 074°09'0 0.0
2018-Jun-21 23:55N 40°42' W 074°09'0 0.0
2018-Jun-21 23:18N 40°42' W 074°09'0 0.0
2018-Jun-21 22:53N 40°42' W 074°09'0 0.0
2018-Jun-21 22:23N 40°42' W 074°09'0 0.0
2018-Jun-21 22:00N 40°42' W 074°09'0 0.0
2018-Jun-21 21:03N 40°42' W 074°09'0 0.1
2018-Jun-21 21:00N 40°42' W 074°09'1 2.4
2018-Jun-21 20:29N 40°41' W 074°09'0 0.0
2018-Jun-21 20:00N 40°41' W 074°09'1 0.1
2018-Jun-21 12:21N 40°42' W 074°09'1 2.1
2018-Jun-21 11:57N 40°41' W 074°09'1 1.4
2018-Jun-21 11:30N 40°41' W 074°09'0 0.5
2018-Jun-21 11:00N 40°41' W 074°08'0 0.0
2018-Jun-21 10:30N 40°41' W 074°08'0 0.0
2018-Jun-21 10:00N 40°41' W 074°08'1 3.0
2018-Jun-21 09:30N 40°40' W 074°09'2 0.8
2018-Jun-21 06:51N 40°39' W 074°11'0 0.0
2018-Jun-21 05:48N 40°39' W 074°11'2 5.3
2018-Jun-21 05:28N 40°39' W 074°09'4 8.6
2018-Jun-21 05:00N 40°40' W 074°04'1 2.7
2018-Jun-21 04:30N 40°41' W 074°05'0 0.0
2018-Jun-21 04:00N 40°41' W 074°05'0 0.0
2018-Jun-21 03:28N 40°41' W 074°05'0 0.0
2018-Jun-21 02:58N 40°41' W 074°05'0 0.0
2018-Jun-21 02:30N 40°41' W 074°05'0 0.0
2018-Jun-21 02:00N 40°41' W 074°05'1 2.6
2018-Jun-21 01:30N 40°41' W 074°03'4 7.9
2018-Jun-21 01:00N 40°43' W 073°59'3 0.7
2018-Jun-20 19:58N 40°46' W 073°57'4 8.2
2018-Jun-20 19:30N 40°42' W 073°59'4 7.9
2018-Jun-20 19:00N 40°41' W 074°04'0 0.8
2018-Jun-20 18:30N 40°41' W 074°04'4 6.3
2018-Jun-20 17:56N 40°39' W 074°08'2 5.4
2018-Jun-20 17:30N 40°41' W 074°09'0 0.1
2018-Jun-20 17:00N 40°41' W 074°08'2 4.0
2018-Jun-20 16:28N 40°39' W 074°09'4 7.6
2018-Jun-20 16:00N 40°39' W 074°04'2 3.1
2018-Jun-20 15:30N 40°41' W 074°04'0 0.6
2018-Jun-20 15:00N 40°41' W 074°05'0 0.0
2018-Jun-20 14:30N 40°41' W 074°05'0 0.0
2018-Jun-20 14:00N 40°41' W 074°05'0 0.0
2018-Jun-20 13:30N 40°41' W 074°05'0 0.0
2018-Jun-20 13:00N 40°41' W 074°05'0 0.0
2018-Jun-20 12:30N 40°41' W 074°05'0 0.0
2018-Jun-20 12:00N 40°41' W 074°05'0 0.0
2018-Jun-20 11:30N 40°41' W 074°05'0 0.0
2018-Jun-20 11:00N 40°41' W 074°05'0 0.0
2018-Jun-20 10:30N 40°41' W 074°05'0 0.0
2018-Jun-20 10:00N 40°41' W 074°05'0 0.0
2018-Jun-20 09:30N 40°41' W 074°05'0 0.0
2018-Jun-20 09:00N 40°41' W 074°05'1 2.0
2018-Jun-20 08:30N 40°41' W 074°04'3 6.6
2018-Jun-20 08:00N 40°42' W 073°60'3 5.7
2018-Jun-20 07:28N 40°44' W 073°57'2 3.4
2018-Jun-20 07:00N 40°43' W 073°56'0 0.2
2018-Jun-20 06:28N 40°43' W 073°55'2 3.6
2018-Jun-20 05:54N 40°44' W 073°58'3 7.3
2018-Jun-20 05:30N 40°42' W 074°00'3 6.6
2018-Jun-20 05:00N 40°41' W 074°04'0 0.5
2018-Jun-20 04:30N 40°41' W 074°05'0 0.0
2018-Jun-20 04:00N 40°41' W 074°05'0 0.0
2018-Jun-20 03:30N 40°41' W 074°05'0 0.0
2018-Jun-20 03:00N 40°41' W 074°05'0 0.0
2018-Jun-20 02:30N 40°41' W 074°05'0 0.0
2018-Jun-20 02:00N 40°41' W 074°05'0 0.0
2018-Jun-20 01:30N 40°41' W 074°05'0 0.0
2018-Jun-20 01:00N 40°41' W 074°05'0 0.0
2018-Jun-20 00:30N 40°41' W 074°05'2 3.7
2018-Jun-20 00:00N 40°39' W 074°04'3 6.0
2018-Jun-19 23:27N 40°39' W 074°09'3 2.0
2018-Jun-19 22:10N 40°42' W 074°09'0 0.0
2018-Jun-19 17:53N 40°42' W 074°09'0 0.0
2018-Jun-19 17:26N 40°42' W 074°09'0 0.1
2018-Jun-19 17:00N 40°42' W 074°09'0 0.3
2018-Jun-19 16:28N 40°42' W 074°09'0 0.1
2018-Jun-19 15:58N 40°42' W 074°09'0 0.0
2018-Jun-19 15:24N 40°42' W 074°09'0 0.0
2018-Jun-19 14:54N 40°42' W 074°09'0 0.0
2018-Jun-19 14:25N 40°42' W 074°09'0 0.0
2018-Jun-19 13:55N 40°42' W 074°09'0 0.0
2018-Jun-19 09:59N 40°42' W 074°09'1 2.1
2018-Jun-19 09:30N 40°41' W 074°08'3 5.3
2018-Jun-19 09:00N 40°39' W 074°08'4 7.1
2018-Jun-19 08:30N 40°40' W 074°04'1 1.1
2018-Jun-19 08:00N 40°40' W 074°03'4 7.5
2018-Jun-19 07:30N 40°42' W 073°59'3 5.2
2018-Jun-19 07:00N 40°44' W 073°56'1 1.8
2018-Jun-19 06:23N 40°43' W 073°56'1 3.7
2018-Jun-19 05:59N 40°44' W 073°57'3 6.1
2018-Jun-19 05:30N 40°42' W 073°60'3 6.8
2018-Jun-19 05:00N 40°40' W 074°03'1 2.4
2018-Jun-19 04:30N 40°41' W 074°05'0 0.0
2018-Jun-19 04:00N 40°41' W 074°05'0 0.0
2018-Jun-19 03:30N 40°41' W 074°05'0 0.0
2018-Jun-19 03:00N 40°41' W 074°05'0 0.0
2018-Jun-19 02:29N 40°41' W 074°05'0 0.0
2018-Jun-19 02:00N 40°41' W 074°05'0 0.0
2018-Jun-19 01:30N 40°41' W 074°05'0 0.0
2018-Jun-19 01:00N 40°41' W 074°05'0 0.0
2018-Jun-19 00:30N 40°41' W 074°05'0 0.0
2018-Jun-19 00:00N 40°41' W 074°05'0 0.0
2018-Jun-18 23:28N 40°41' W 074°05'0 0.0
2018-Jun-18 23:00N 40°41' W 074°05'0 0.0
2018-Jun-18 22:30N 40°41' W 074°05'0 0.1
2018-Jun-18 22:00N 40°41' W 074°04'3 5.8
2018-Jun-18 21:25N 40°39' W 074°08'3 3.5
2018-Jun-18 20:32N 40°42' W 074°08'0 4.4
2018-Jun-18 20:26N 40°41' W 074°08'0 1.0
2018-Jun-18 20:00N 40°41' W 074°09'0 0.1
2018-Jun-18 19:30N 40°41' W 074°08'0 0.2
2018-Jun-18 19:00N 40°41' W 074°09'0 0.1
2018-Jun-18 18:30N 40°41' W 074°08'1 2.0
2018-Jun-18 17:58N 40°42' W 074°09'0 0.1
2018-Jun-18 17:29N 40°42' W 074°09'0 0.0
2018-Jun-18 08:28N 40°42' W 074°09'0 0.0
2018-Jun-18 08:00N 40°42' W 074°09'0 0.0
2018-Jun-18 07:30N 40°42' W 074°09'0 0.0
2018-Jun-18 03:02N 40°42' W 074°09'0 0.0
2018-Jun-17 11:11N 40°42' W 074°09'0 0.1
2018-Jun-17 10:45N 40°42' W 074°09'0 0.0
2018-Jun-17 10:30N 40°42' W 074°09'0 0.0
2018-Jun-17 10:00N 40°42' W 074°09'0 0.0
2018-Jun-17 09:28N 40°42' W 074°09'0 0.0
2018-Jun-17 08:58N 40°42' W 074°09'0 0.0
2018-Jun-17 08:30N 40°42' W 074°09'0 0.0
2018-Jun-17 08:00N 40°42' W 074°09'0 0.0
2018-Jun-17 07:30N 40°42' W 074°09'0 0.0
2018-Jun-17 07:00N 40°42' W 074°09'0 0.0
2018-Jun-17 06:29N 40°42' W 074°09'0 0.0
2018-Jun-17 06:00N 40°42' W 074°09'0 0.0
2018-Jun-17 05:30N 40°42' W 074°09'0 0.0
2018-Jun-17 05:00N 40°42' W 074°09'0 0.0
2018-Jun-17 04:30N 40°42' W 074°09'0 0.0
2018-Jun-17 04:00N 40°42' W 074°09'0 0.0
2018-Jun-17 03:30N 40°42' W 074°09'0 0.0
2018-Jun-17 03:00N 40°42' W 074°09'0 0.0
2018-Jun-17 02:29N 40°42' W 074°09'0 0.0
2018-Jun-17 02:00N 40°42' W 074°09'0 0.0
2018-Jun-17 01:30N 40°42' W 074°09'0 0.0
2018-Jun-17 00:16N 40°42' W 074°09'2 6.1
2018-Jun-17 00:00N 40°41' W 074°08'2 3.8
2018-Jun-16 23:30N 40°39' W 074°08'4 7.7
2018-Jun-16 23:00N 40°41' W 074°04'1 1.0
2018-Jun-16 22:30N 40°41' W 074°05'0 0.0
2018-Jun-16 22:00N 40°41' W 074°05'2 3.9
2018-Jun-16 21:30N 40°41' W 074°02'4 7.9
2018-Jun-16 21:00N 40°44' W 073°58'2 0.3
2018-Jun-16 15:57N 40°46' W 073°57'3 7.3
2018-Jun-16 15:30N 40°42' W 073°59'4 7.1
2018-Jun-16 15:00N 40°40' W 074°03'2 3.5
2018-Jun-16 14:30N 40°41' W 074°05'0 0.0
2018-Jun-16 14:00N 40°41' W 074°05'0 0.0
2018-Jun-16 13:30N 40°41' W 074°05'0 0.0
2018-Jun-16 13:00N 40°41' W 074°05'0 0.0
2018-Jun-16 12:30N 40°41' W 074°05'0 0.0
2018-Jun-16 12:00N 40°41' W 074°05'0 0.0
2018-Jun-16 11:30N 40°41' W 074°05'0 0.0
2018-Jun-16 11:00N 40°41' W 074°05'0 0.0
2018-Jun-16 10:30N 40°41' W 074°05'0 0.0
2018-Jun-16 10:00N 40°41' W 074°05'0 0.0
2018-Jun-16 09:30N 40°41' W 074°05'0 0.0
2018-Jun-16 09:00N 40°41' W 074°05'0 0.0
2018-Jun-16 08:30N 40°41' W 074°05'0 0.0
2018-Jun-16 08:00N 40°41' W 074°05'0 0.0
2018-Jun-16 07:30N 40°41' W 074°05'0 0.0
2018-Jun-16 07:00N 40°41' W 074°05'0 0.0
2018-Jun-16 06:30N 40°41' W 074°05'0 0.0
2018-Jun-16 06:00N 40°41' W 074°05'0 0.2
2018-Jun-16 05:30N 40°41' W 074°04'2 4.2
2018-Jun-16 05:00N 40°42' W 074°02'4 7.7
2018-Jun-16 04:30N 40°44' W 073°58'2 3.9
2018-Jun-16 03:59N 40°43' W 073°56'1 1.7
2018-Jun-16 03:21N 40°44' W 073°56'1 2.2
2018-Jun-16 02:57N 40°44' W 073°58'2 5.2
2018-Jun-16 02:30N 40°42' W 073°59'3 7.0
2018-Jun-16 02:00N 40°40' W 074°03'1 2.9
2018-Jun-16 01:30N 40°41' W 074°04'0 0.0
2018-Jun-16 00:59N 40°41' W 074°04'0 0.0
2018-Jun-16 00:30N 40°41' W 074°04'0 0.2
2018-Jun-16 00:00N 40°41' W 074°05'0 0.3
2018-Jun-15 23:30N 40°41' W 074°05'0 0.0
2018-Jun-15 23:00N 40°41' W 074°05'0 0.0
2018-Jun-15 22:30N 40°41' W 074°05'0 0.0
2018-Jun-15 22:00N 40°41' W 074°05'0 0.0
2018-Jun-15 21:30N 40°41' W 074°05'0 0.0
2018-Jun-15 21:00N 40°41' W 074°05'0 0.0
2018-Jun-15 20:30N 40°41' W 074°05'0 0.0
2018-Jun-15 20:00N 40°41' W 074°05'0 0.2
2018-Jun-15 19:30N 40°41' W 074°05'0 0.2
2018-Jun-15 19:00N 40°41' W 074°05'0 0.3
2018-Jun-15 18:30N 40°41' W 074°05'0 0.0
2018-Jun-15 17:59N 40°41' W 074°05'0 0.0
2018-Jun-15 17:29N 40°41' W 074°05'0 0.0
2018-Jun-15 17:00N 40°41' W 074°05'0 0.0
2018-Jun-15 16:30N 40°41' W 074°05'0 0.0
2018-Jun-15 16:00N 40°41' W 074°05'0 0.0
2018-Jun-15 15:30N 40°41' W 074°05'0 0.0
2018-Jun-15 15:00N 40°41' W 074°05'0 0.0
2018-Jun-15 14:30N 40°41' W 074°05'0 0.0
2018-Jun-15 14:00N 40°41' W 074°05'0 0.0
2018-Jun-15 13:30N 40°41' W 074°05'0 0.0
2018-Jun-15 12:58N 40°41' W 074°05'0 0.0
2018-Jun-15 12:29N 40°41' W 074°05'0 0.0
2018-Jun-15 11:59N 40°41' W 074°05'0 0.0
2018-Jun-15 11:30N 40°41' W 074°05'0 0.0
2018-Jun-15 11:00N 40°41' W 074°05'0 0.0
2018-Jun-15 10:30N 40°41' W 074°05'0 0.2
2018-Jun-15 10:00N 40°41' W 074°05'0 0.0
2018-Jun-15 09:30N 40°41' W 074°05'0 0.0
2018-Jun-15 09:00N 40°41' W 074°05'0 0.0
2018-Jun-15 08:30N 40°41' W 074°05'0 0.0
2018-Jun-15 08:00N 40°41' W 074°05'0 0.0
2018-Jun-15 07:30N 40°41' W 074°05'0 0.0
2018-Jun-15 07:00N 40°41' W 074°05'0 0.0
2018-Jun-15 06:25N 40°41' W 074°05'0 0.0
2018-Jun-15 05:58N 40°41' W 074°05'0 0.0
2018-Jun-15 05:30N 40°41' W 074°05'0 0.0
2018-Jun-15 05:00N 40°41' W 074°05'0 0.0
2018-Jun-15 04:30N 40°41' W 074°05'0 0.0
2018-Jun-15 04:00N 40°41' W 074°05'0 0.0
2018-Jun-15 03:30N 40°41' W 074°05'0 0.0
2018-Jun-15 03:00N 40°41' W 074°05'0 0.0
2018-Jun-15 02:30N 40°41' W 074°05'0 0.0
2018-Jun-15 01:59N 40°41' W 074°05'0 0.0
2018-Jun-15 01:29N 40°41' W 074°05'0 0.0
2018-Jun-15 01:00N 40°41' W 074°05'0 0.0
2018-Jun-15 00:30N 40°41' W 074°05'0 0.0
2018-Jun-15 00:00N 40°41' W 074°05'0 0.0
2018-Jun-14 23:30N 40°41' W 074°05'0 0.0
2018-Jun-14 22:58N 40°41' W 074°05'0 0.0
2018-Jun-14 22:27N 40°41' W 074°05'0 0.0
2018-Jun-14 21:59N 40°41' W 074°05'0 0.0
2018-Jun-14 21:29N 40°41' W 074°05'0 0.0
2018-Jun-14 20:58N 40°41' W 074°05'0 0.0
2018-Jun-14 20:27N 40°41' W 074°05'0 0.8
2018-Jun-14 20:00N 40°41' W 074°04'3 5.5
2018-Jun-14 19:30N 40°42' W 074°01'4 7.7
2018-Jun-14 19:00N 40°45' W 073°58'3 0.5
2018-Jun-14 13:31N 40°47' W 073°55'2 9.0
2018-Jun-14 13:17N 40°46' W 073°57'2 8.0
2018-Jun-14 13:00N 40°43' W 073°58'4 8.4
2018-Jun-14 12:30N 40°41' W 074°02'2 4.1
2018-Jun-14 12:00N 40°41' W 074°05'0 0.3
2018-Jun-14 11:30N 40°41' W 074°05'0 0.0
2018-Jun-14 11:00N 40°41' W 074°05'0 0.0
2018-Jun-14 10:30N 40°41' W 074°05'0 0.2
2018-Jun-14 10:00N 40°41' W 074°05'0 0.0
2018-Jun-14 09:30N 40°41' W 074°05'0 0.0
2018-Jun-14 08:58N 40°41' W 074°05'0 0.0
2018-Jun-14 08:29N 40°41' W 074°05'0 0.0
2018-Jun-14 08:00N 40°41' W 074°05'0 0.0
2018-Jun-14 07:30N 40°41' W 074°05'0 0.0
2018-Jun-14 06:59N 40°41' W 074°05'0 0.0
2018-Jun-14 06:30N 40°41' W 074°05'0 0.0
2018-Jun-14 05:59N 40°41' W 074°05'0 0.0
2018-Jun-14 05:30N 40°41' W 074°05'0 0.0
2018-Jun-14 05:00N 40°41' W 074°05'0 0.0
2018-Jun-14 04:30N 40°41' W 074°05'0 0.0
2018-Jun-14 04:00N 40°41' W 074°05'0 0.0
2018-Jun-14 03:30N 40°41' W 074°05'0 0.0
2018-Jun-14 02:59N 40°41' W 074°05'0 0.0
2018-Jun-14 02:30N 40°41' W 074°05'1 2.8
2018-Jun-14 02:00N 40°40' W 074°04'4 7.3
2018-Jun-14 01:29N 40°39' W 074°09'  

Dump ship's entire track history